createdAt,value
2023-03-05T00:01:12.090Z,2.17
2023-03-05T00:03:39.513Z,1.55
2023-03-05T00:06:06.961Z,1.05
2023-03-05T00:08:34.024Z,1.23
2023-03-05T00:11:06.675Z,0.73
2023-03-05T00:13:34.471Z,1.25
2023-03-05T00:16:13.247Z,1.40
2023-03-05T00:18:40.842Z,1.88
2023-03-05T00:21:35.414Z,2.53
2023-03-05T00:24:04.796Z,1.10
2023-03-05T00:26:34.592Z,1.42
2023-03-05T00:29:01.681Z,2.40
2023-03-05T00:31:30.692Z,3.53
2023-03-05T00:34:07.785Z,1.30
2023-03-05T00:36:39.115Z,1.20
2023-03-05T00:39:06.005Z,1.65
2023-03-05T00:41:33.452Z,1.10
2023-03-05T00:44:00.456Z,0.75
2023-03-05T00:46:27.663Z,0.93
2023-03-05T00:48:55.989Z,2.83
2023-03-05T00:51:24.332Z,1.45
2023-03-05T00:53:51.608Z,1.15
2023-03-05T00:56:20.067Z,1.60
2023-03-05T00:58:46.997Z,0.98
2023-03-05T01:01:14.852Z,0.93
2023-03-05T01:03:42.060Z,0.90
2023-03-05T01:06:11.459Z,0.85
2023-03-05T01:08:38.747Z,0.85
2023-03-05T01:11:06.651Z,2.15
2023-03-05T01:13:33.636Z,0.70
2023-03-05T01:16:01.110Z,0.73
2023-03-05T01:18:28.419Z,0.98
2023-03-05T01:20:55.414Z,2.42
2023-03-05T01:23:22.478Z,2.30
2023-03-05T01:25:59.914Z,1.33
2023-03-05T01:28:27.989Z,1.30
2023-03-05T01:30:55.092Z,1.52
2023-03-05T01:33:22.020Z,2.53
2023-03-05T01:35:49.686Z,3.30
2023-03-05T01:38:17.233Z,1.08
2023-03-05T01:40:44.359Z,3.90
2023-03-05T01:43:11.491Z,1.48
2023-03-05T01:45:40.003Z,1.10
2023-03-05T01:48:07.152Z,1.02
2023-03-05T01:50:34.388Z,2.90
2023-03-05T01:53:07.377Z,4.40
2023-03-05T01:55:37.342Z,1.45
2023-03-05T01:58:10.117Z,1.30
2023-03-05T02:00:52.773Z,1.30
2023-03-05T02:03:20.858Z,0.75
2023-03-05T02:05:47.954Z,3.80
2023-03-05T02:08:18.480Z,1.15
2023-03-05T02:10:50.908Z,1.48
2023-03-05T02:13:22.690Z,1.33
2023-03-05T02:15:50.993Z,1.10
2023-03-05T02:18:19.267Z,1.00
2023-03-05T02:20:54.131Z,1.08
2023-03-05T02:23:22.785Z,0.82
2023-03-05T02:25:50.241Z,0.50
2023-03-05T02:28:20.498Z,1.08
2023-03-05T02:30:47.628Z,0.60
2023-03-05T02:33:15.853Z,0.60
2023-03-05T02:35:43.864Z,0.68
2023-03-05T02:38:12.480Z,0.93
2023-03-05T02:40:39.489Z,0.50
2023-03-05T02:43:07.974Z,1.27
2023-03-05T02:45:34.945Z,0.77
2023-03-05T02:48:01.950Z,0.90
2023-03-05T02:50:29.650Z,1.63
2023-03-05T02:52:56.581Z,0.77
2023-03-05T02:55:23.674Z,0.77
2023-03-05T02:57:50.678Z,0.80
2023-03-05T03:00:18.209Z,0.60
2023-03-05T03:02:45.229Z,2.10
2023-03-05T03:05:12.248Z,1.00
2023-03-05T03:07:39.185Z,0.82
2023-03-05T03:10:06.802Z,1.10
2023-03-05T03:12:38.535Z,0.60
2023-03-05T03:15:06.718Z,1.00
2023-03-05T03:17:36.190Z,0.50
2023-03-05T03:20:05.661Z,0.85
2023-03-05T03:22:33.168Z,0.60
2023-03-05T03:25:01.069Z,0.82
2023-03-05T03:27:28.008Z,0.70
2023-03-05T03:29:54.948Z,0.38
2023-03-05T03:32:21.997Z,0.80
2023-03-05T03:34:48.999Z,0.50
2023-03-05T03:37:16.252Z,0.60
2023-03-05T03:39:43.130Z,0.40
2023-03-05T03:42:10.104Z,0.52
2023-03-05T03:44:36.993Z,0.50
2023-03-05T03:47:04.229Z,0.50
2023-03-05T03:49:31.176Z,1.25
2023-03-05T03:52:00.759Z,0.30
2023-03-05T03:54:27.683Z,0.40
2023-03-05T03:56:54.618Z,0.60
2023-03-05T03:59:21.941Z,1.20
2023-03-05T04:01:48.890Z,0.95
2023-03-05T04:04:16.209Z,0.75
2023-03-05T04:06:43.490Z,0.50
2023-03-05T04:09:10.414Z,0.30
2023-03-05T04:11:38.253Z,0.50
2023-03-05T04:14:05.858Z,0.50
2023-03-05T04:16:33.314Z,1.10
2023-03-05T04:19:00.285Z,1.52
2023-03-05T04:21:27.241Z,0.82
2023-03-05T04:23:54.134Z,0.40
2023-03-05T04:26:21.074Z,0.52
2023-03-05T04:28:48.412Z,0.40
2023-03-05T04:31:15.841Z,0.50
2023-03-05T04:33:42.793Z,0.60
2023-03-05T04:36:09.938Z,1.38
2023-03-05T04:38:36.873Z,0.95
2023-03-05T04:41:03.852Z,0.50
2023-03-05T04:43:30.742Z,0.52
2023-03-05T04:45:57.887Z,0.75
2023-03-05T04:48:24.791Z,1.10
2023-03-05T04:50:51.795Z,0.95
2023-03-05T04:53:18.771Z,0.40
2023-03-05T04:55:45.750Z,0.68
2023-03-05T04:58:12.652Z,0.70
2023-03-05T05:00:39.590Z,0.40
2023-03-05T05:03:06.562Z,0.43
2023-03-05T05:05:33.586Z,0.55
2023-03-05T05:08:00.543Z,0.40
2023-03-05T05:10:27.630Z,0.77
2023-03-05T05:12:54.606Z,1.10
2023-03-05T05:15:21.638Z,0.30
2023-03-05T05:17:48.745Z,2.05
2023-03-05T05:20:17.088Z,1.65
2023-03-05T05:22:44.540Z,0.93
2023-03-05T05:25:12.126Z,0.50
2023-03-05T05:27:42.185Z,1.02
2023-03-05T05:30:10.248Z,1.58
2023-03-05T05:32:37.203Z,0.40
2023-03-05T05:35:04.299Z,0.65
2023-03-05T05:37:31.255Z,0.30
2023-03-05T05:39:58.287Z,1.10
2023-03-05T05:42:26.165Z,0.60
2023-03-05T05:44:53.838Z,0.57
2023-03-05T05:47:20.789Z,0.68
2023-03-05T05:49:47.846Z,0.40
2023-03-05T05:52:15.169Z,1.05
2023-03-05T05:54:42.270Z,1.35
2023-03-05T05:57:09.425Z,0.52
2023-03-05T05:59:37.540Z,0.70
2023-03-05T06:02:04.910Z,1.55
2023-03-05T06:04:31.989Z,0.90
2023-03-05T06:07:00.061Z,0.47
2023-03-05T06:09:27.494Z,1.05
2023-03-05T06:11:54.395Z,0.57
2023-03-05T06:14:21.369Z,0.50
2023-03-05T06:16:48.352Z,1.45
2023-03-05T06:19:15.976Z,0.50
2023-03-05T06:21:43.649Z,0.80
2023-03-05T06:24:10.791Z,0.73
2023-03-05T06:26:37.717Z,0.47
2023-03-05T06:29:04.638Z,1.00
2023-03-05T06:31:31.859Z,0.50
2023-03-05T06:34:03.781Z,2.05
2023-03-05T06:36:31.539Z,0.73
2023-03-05T06:38:59.045Z,0.43
2023-03-05T06:41:29.140Z,1.23
2023-03-05T06:43:56.977Z,0.75
2023-03-05T06:46:31.789Z,1.00
2023-03-05T06:49:01.991Z,0.80
2023-03-05T06:51:32.011Z,2.50
2023-03-05T06:54:04.638Z,0.70
2023-03-05T06:56:31.760Z,0.95
2023-03-05T06:58:59.271Z,1.00
2023-03-05T07:01:26.470Z,1.92
2023-03-05T07:03:55.097Z,0.47
2023-03-05T07:06:22.594Z,0.50
2023-03-05T07:08:49.531Z,0.63
2023-03-05T07:11:19.241Z,0.70
2023-03-05T07:13:49.666Z,1.65
2023-03-05T07:16:22.637Z,0.68
2023-03-05T07:18:50.273Z,2.83
2023-03-05T07:21:23.106Z,0.60
2023-03-05T07:23:50.567Z,0.98
2023-03-05T07:26:17.544Z,1.33
2023-03-05T07:28:44.459Z,0.85
2023-03-05T07:31:15.102Z,0.50
2023-03-05T07:33:42.319Z,1.50
2023-03-05T07:36:10.615Z,0.50
2023-03-05T07:38:37.677Z,0.40
2023-03-05T07:41:12.771Z,0.40
2023-03-05T07:43:40.401Z,1.30
2023-03-05T07:46:09.247Z,0.50
2023-03-05T07:48:36.641Z,0.40
2023-03-05T07:51:05.734Z,0.60
2023-03-05T07:53:32.661Z,1.75
2023-03-05T07:55:59.764Z,0.40
2023-03-05T07:58:27.020Z,0.57
2023-03-05T08:00:54.109Z,0.70
2023-03-05T08:03:21.049Z,0.60
2023-03-05T08:05:47.998Z,0.68
2023-03-05T08:08:15.012Z,0.73
2023-03-05T08:10:42.214Z,1.85
2023-03-05T08:13:09.229Z,0.50
2023-03-05T08:15:37.943Z,0.63
2023-03-05T08:18:05.054Z,0.60
2023-03-05T08:20:36.232Z,0.60
2023-03-05T08:23:04.856Z,0.65
2023-03-05T08:25:32.433Z,0.60
2023-03-05T08:28:00.251Z,0.95
2023-03-05T08:30:27.752Z,1.65
2023-03-05T08:32:55.659Z,0.60
2023-03-05T08:35:23.254Z,0.70
2023-03-05T08:37:50.263Z,0.90
2023-03-05T08:40:20.423Z,0.65
2023-03-05T08:42:47.927Z,0.70
2023-03-05T08:45:14.864Z,0.90
2023-03-05T08:47:41.787Z,1.25
2023-03-05T08:50:09.531Z,2.83
2023-03-05T08:52:36.750Z,1.10
2023-03-05T08:55:03.929Z,1.30
2023-03-05T08:57:30.807Z,0.75
2023-03-05T08:59:57.743Z,0.68
2023-03-05T09:02:24.751Z,0.43
2023-03-05T09:04:51.652Z,0.88
2023-03-05T09:07:18.633Z,0.43
2023-03-05T09:09:45.564Z,0.38
2023-03-05T09:12:13.454Z,0.20
2023-03-05T09:14:40.959Z,0.47
2023-03-05T09:17:09.097Z,0.10
2023-03-05T09:19:36.237Z,0.32
2023-03-05T09:22:03.239Z,0.20
2023-03-05T09:24:30.210Z,0.20
2023-03-05T09:27:00.605Z,0.10
2023-03-05T09:29:27.797Z,0.10
2023-03-05T09:31:54.809Z,0.10
2023-03-05T09:34:22.399Z,0.10
2023-03-05T09:36:49.765Z,0.15
2023-03-05T09:39:17.106Z,0.10
2023-03-05T09:42:14.965Z,0.20
2023-03-05T09:45:26.805Z,0.20
2023-03-05T09:48:16.606Z,0.13
2023-03-05T09:50:46.356Z,0.30
2023-03-05T09:53:28.633Z,0.85
2023-03-05T09:56:02.819Z,0.32
2023-03-05T09:58:42.517Z,0.20
2023-03-05T10:01:15.658Z,0.90
2023-03-05T10:03:51.405Z,0.93
2023-03-05T10:06:27.412Z,0.30
2023-03-05T10:08:54.311Z,0.20
2023-03-05T10:11:35.073Z,0.25
2023-03-05T10:14:03.088Z,0.30
2023-03-05T10:17:02.696Z,0.50
2023-03-05T10:19:50.979Z,2.03
2023-03-05T10:22:25.598Z,0.40
2023-03-05T10:25:00.774Z,1.40
2023-03-05T10:27:42.897Z,0.52
2023-03-05T10:30:21.926Z,0.40
2023-03-05T10:33:09.907Z,0.80
2023-03-05T10:35:49.024Z,2.55
2023-03-05T10:38:35.239Z,1.65
2023-03-05T10:41:24.251Z,1.08
2023-03-05T10:44:06.252Z,1.52
2023-03-05T10:46:36.948Z,2.28
2023-03-05T10:49:38.172Z,1.80
2023-03-05T10:52:18.742Z,1.23
2023-03-05T10:54:45.857Z,1.33
2023-03-05T10:57:12.706Z,0.68
2023-03-05T10:59:46.694Z,1.50
2023-03-05T11:02:13.866Z,0.85
2023-03-05T11:04:41.144Z,0.47
2023-03-05T11:07:17.304Z,0.65
2023-03-05T11:10:04.864Z,0.80
2023-03-05T11:12:39.348Z,1.27
2023-03-05T11:15:06.431Z,0.77
2023-03-05T11:17:38.344Z,0.82
2023-03-05T11:20:26.828Z,0.50
2023-03-05T11:23:16.056Z,1.15
2023-03-05T11:25:52.277Z,1.08
2023-03-05T11:28:32.347Z,1.00
2023-03-05T11:31:05.063Z,1.00
2023-03-05T11:33:32.258Z,1.23
2023-03-05T11:36:30.928Z,0.73
2023-03-05T11:39:09.729Z,1.17
2023-03-05T11:41:48.610Z,1.77
2023-03-05T11:44:22.400Z,1.20
2023-03-05T11:46:54.745Z,2.85
2023-03-05T11:49:26.727Z,0.70
2023-03-05T11:52:18.325Z,0.93
2023-03-05T11:55:28.441Z,1.45
2023-03-05T11:58:07.084Z,3.17
2023-03-05T12:00:37.289Z,2.33
2023-03-05T12:03:13.847Z,1.25
2023-03-05T12:05:45.018Z,1.05
2023-03-05T12:08:15.887Z,1.30
2023-03-05T12:10:42.943Z,3.33
2023-03-05T12:13:38.337Z,2.67
2023-03-05T12:16:12.710Z,2.70
2023-03-05T12:18:51.599Z,1.10
2023-03-05T12:21:42.105Z,1.27
2023-03-05T12:24:27.320Z,1.63
2023-03-05T12:27:06.088Z,1.05
2023-03-05T12:29:46.858Z,2.13
2023-03-05T12:32:22.865Z,1.30
2023-03-05T12:35:06.942Z,1.20
2023-03-05T12:37:33.822Z,3.60
2023-03-05T12:40:10.833Z,2.38
2023-03-05T12:42:37.693Z,5.45
2023-03-05T12:45:14.692Z,1.40
2023-03-05T12:47:48.667Z,3.25
2023-03-05T12:50:28.038Z,2.40
2023-03-05T12:52:54.915Z,2.00
2023-03-05T12:55:27.664Z,2.33
2023-03-05T12:58:17.538Z,1.75
2023-03-05T13:00:52.682Z,1.85
2023-03-05T13:03:34.119Z,4.43
2023-03-05T13:06:04.116Z,2.03
2023-03-05T13:08:36.120Z,1.08
2023-03-05T13:11:18.948Z,1.58
2023-03-05T13:13:47.789Z,1.50
2023-03-05T13:16:30.366Z,4.18
2023-03-05T13:19:02.056Z,4.40
2023-03-05T13:21:33.162Z,3.33
2023-03-05T13:24:03.130Z,4.35
2023-03-05T13:26:40.970Z,6.47
2023-03-05T13:29:16.099Z,2.22
2023-03-05T13:31:45.877Z,3.20
2023-03-05T13:34:18.704Z,1.95
2023-03-05T13:37:04.848Z,2.85
2023-03-05T13:39:35.483Z,3.55
2023-03-05T13:42:05.755Z,2.55
2023-03-05T13:44:34.121Z,2.90
2023-03-05T13:47:18.938Z,2.15
2023-03-05T13:49:47.371Z,4.22
2023-03-05T13:52:46.668Z,1.67
2023-03-05T13:55:16.919Z,1.30
2023-03-05T13:57:55.833Z,5.60
2023-03-05T14:00:35.897Z,2.33
2023-03-05T14:03:21.912Z,2.50
2023-03-05T14:05:50.115Z,3.97
2023-03-05T14:08:22.582Z,2.92
2023-03-05T14:10:50.582Z,2.38
2023-03-05T14:13:27.809Z,3.47
2023-03-05T14:16:03.573Z,2.60
2023-03-05T14:18:30.555Z,5.32
2023-03-05T14:21:11.781Z,3.35
2023-03-05T14:23:47.868Z,3.67
2023-03-05T14:26:34.403Z,4.03
2023-03-05T14:29:17.758Z,7.90
2023-03-05T14:31:56.997Z,2.53
2023-03-05T14:34:29.345Z,2.83
2023-03-05T14:37:00.302Z,4.68
2023-03-05T14:39:51.693Z,4.47
2023-03-05T14:42:28.950Z,3.47
2023-03-05T14:44:58.619Z,3.30
2023-03-05T14:47:26.717Z,2.97
2023-03-05T14:49:53.995Z,1.38
2023-03-05T14:52:23.429Z,4.00
2023-03-05T14:54:50.722Z,3.53
2023-03-05T14:57:22.089Z,2.33
2023-03-05T14:59:49.437Z,2.22
2023-03-05T15:02:18.916Z,3.03
2023-03-05T15:04:46.951Z,2.45
2023-03-05T15:07:22.644Z,1.60
2023-03-05T15:09:49.646Z,2.45
2023-03-05T15:12:17.687Z,3.00
2023-03-05T15:14:45.253Z,4.35
2023-03-05T15:17:39.345Z,3.63
2023-03-05T15:20:10.017Z,2.78
2023-03-05T15:22:37.741Z,2.47
2023-03-05T15:25:04.972Z,1.52
2023-03-05T15:27:32.196Z,4.93
2023-03-05T15:29:59.715Z,2.53
2023-03-05T15:32:29.302Z,2.70
2023-03-05T15:34:56.308Z,1.05
2023-03-05T15:37:23.851Z,2.20
2023-03-05T15:39:50.805Z,2.03
2023-03-05T15:42:17.848Z,3.03
2023-03-05T15:44:44.793Z,2.72
2023-03-05T15:47:11.782Z,2.83
2023-03-05T15:49:38.674Z,10.30
2023-03-05T15:52:05.784Z,2.60
2023-03-05T15:54:32.844Z,4.65
2023-03-05T15:56:59.798Z,1.00
2023-03-05T15:59:27.253Z,3.33
2023-03-05T16:01:54.265Z,2.38
2023-03-05T16:04:21.178Z,5.15
2023-03-05T16:06:50.293Z,4.45
2023-03-05T16:09:19.781Z,3.30
2023-03-05T16:11:49.261Z,1.75
2023-03-05T16:14:21.417Z,2.60
2023-03-05T16:16:48.761Z,4.97
2023-03-05T16:19:18.332Z,2.30
2023-03-05T16:21:45.681Z,1.27
2023-03-05T16:24:13.153Z,1.50
2023-03-05T16:26:41.182Z,1.05
2023-03-05T16:29:08.655Z,1.02
2023-03-05T16:31:38.287Z,3.00
2023-03-05T16:34:05.297Z,0.68
2023-03-05T16:36:35.388Z,1.63
2023-03-05T16:39:04.395Z,1.95
2023-03-05T16:41:31.959Z,2.83
2023-03-05T16:44:00.036Z,4.88
2023-03-05T16:46:29.433Z,3.35
2023-03-05T16:48:56.703Z,3.15
2023-03-05T16:51:24.176Z,1.58
2023-03-05T16:53:51.541Z,3.00
2023-03-05T16:56:18.867Z,1.73
2023-03-05T16:58:45.893Z,2.55
2023-03-05T17:01:17.887Z,3.40
2023-03-05T17:03:45.310Z,1.55
2023-03-05T17:06:21.789Z,2.55
2023-03-05T17:08:49.890Z,4.68
2023-03-05T17:11:17.636Z,7.80
2023-03-05T17:13:48.149Z,3.75
2023-03-05T17:16:17.609Z,3.08
2023-03-05T17:18:44.657Z,2.35
2023-03-05T17:21:13.984Z,1.75
2023-03-05T17:23:41.518Z,3.28
2023-03-05T17:26:11.736Z,4.15
2023-03-05T17:28:39.142Z,2.35
2023-03-05T17:31:06.593Z,2.40
2023-03-05T17:33:34.582Z,3.05
2023-03-05T17:36:02.422Z,1.52
2023-03-05T17:38:29.694Z,2.13
2023-03-05T17:40:56.671Z,1.90
2023-03-05T17:43:24.095Z,2.42
2023-03-05T17:45:51.169Z,2.60
2023-03-05T17:48:18.114Z,5.18
2023-03-05T17:50:46.254Z,5.10
2023-03-05T17:53:13.403Z,3.75
2023-03-05T17:55:40.657Z,4.00
2023-03-05T17:58:07.746Z,5.88
2023-03-05T18:00:35.440Z,2.03
2023-03-05T18:03:02.691Z,3.70
2023-03-05T18:05:30.194Z,2.63
2023-03-05T18:07:57.339Z,3.08
2023-03-05T18:10:26.218Z,4.55
2023-03-05T18:12:54.232Z,3.10
2023-03-05T18:15:23.498Z,4.03
2023-03-05T18:17:51.237Z,3.95
2023-03-05T18:20:28.527Z,2.85
2023-03-05T18:22:57.772Z,4.20
2023-03-05T18:25:30.896Z,5.15
2023-03-05T18:28:06.931Z,5.63
2023-03-05T18:30:34.651Z,3.50
2023-03-05T18:33:01.818Z,5.07
2023-03-05T18:35:29.766Z,4.22
2023-03-05T18:37:57.778Z,4.10
2023-03-05T18:40:26.512Z,2.60
2023-03-05T18:42:53.471Z,2.83
2023-03-05T18:45:22.605Z,2.10
2023-03-05T18:47:54.041Z,4.95
2023-03-05T18:50:24.192Z,2.15
2023-03-05T18:52:51.706Z,6.57
2023-03-05T18:55:22.616Z,4.47
2023-03-05T18:57:49.961Z,2.75
2023-03-05T19:00:20.526Z,4.22
2023-03-05T19:02:47.605Z,2.28
2023-03-05T19:05:19.375Z,3.38
2023-03-05T19:07:46.523Z,3.50
2023-03-05T19:10:15.577Z,6.78
2023-03-05T19:12:49.838Z,5.18
2023-03-05T19:15:17.290Z,2.13
2023-03-05T19:17:44.290Z,2.97
2023-03-05T19:20:14.448Z,1.60
2023-03-05T19:22:41.842Z,2.65
2023-03-05T19:25:10.203Z,2.50
2023-03-05T19:27:37.811Z,4.53
2023-03-05T19:30:06.056Z,3.97
2023-03-05T19:32:33.072Z,3.58
2023-03-05T19:35:00.056Z,4.68
2023-03-05T19:37:27.087Z,3.80
2023-03-05T19:39:54.342Z,5.30
2023-03-05T19:42:21.374Z,2.38
2023-03-05T19:44:48.439Z,3.92
2023-03-05T19:47:15.375Z,5.13
2023-03-05T19:49:42.348Z,3.75
2023-03-05T19:52:09.556Z,2.83
2023-03-05T19:54:36.525Z,3.53
2023-03-05T19:57:03.545Z,4.07
2023-03-05T19:59:30.441Z,5.82
2023-03-05T20:01:57.581Z,7.65
2023-03-05T20:04:25.304Z,3.70
2023-03-05T20:06:52.527Z,3.58
2023-03-05T20:09:19.631Z,4.50
2023-03-05T20:11:47.184Z,4.78
2023-03-05T20:14:14.741Z,6.60
2023-03-05T20:16:43.267Z,5.43
2023-03-05T20:19:16.433Z,6.45
2023-03-05T20:21:44.936Z,4.25
2023-03-05T20:24:14.682Z,6.18
2023-03-05T20:26:43.939Z,4.65
2023-03-05T20:29:11.574Z,4.75
2023-03-05T20:31:38.916Z,6.05
2023-03-05T20:34:08.731Z,3.92
2023-03-05T20:36:35.806Z,6.05
2023-03-05T20:39:04.704Z,4.55
2023-03-05T20:41:32.185Z,3.42
2023-03-05T20:43:59.163Z,3.33
2023-03-05T20:46:29.044Z,5.47
2023-03-05T20:48:59.142Z,3.65
2023-03-05T20:51:27.441Z,4.50
2023-03-05T20:54:02.548Z,8.45
2023-03-05T20:56:32.460Z,2.90
2023-03-05T20:59:01.406Z,3.83
2023-03-05T21:01:28.748Z,4.95
2023-03-05T21:03:58.813Z,5.95
2023-03-05T21:06:26.892Z,3.30
2023-03-05T21:08:54.104Z,5.93
2023-03-05T21:11:21.617Z,3.45
2023-03-05T21:13:48.753Z,4.53
2023-03-05T21:16:18.674Z,6.32
2023-03-05T21:18:45.889Z,5.07
2023-03-05T21:21:13.038Z,5.30
2023-03-05T21:23:40.067Z,4.72
2023-03-05T21:26:07.273Z,4.90
2023-03-05T21:28:34.507Z,4.07
2023-03-05T21:31:08.690Z,4.32
2023-03-05T21:33:36.121Z,4.72
2023-03-05T21:36:03.884Z,3.67
2023-03-05T21:38:33.941Z,6.88
2023-03-05T21:41:02.144Z,3.92
2023-03-05T21:43:31.336Z,6.45
2023-03-05T21:46:01.128Z,5.03
2023-03-05T21:48:28.525Z,5.85
2023-03-05T21:50:55.704Z,8.80
2023-03-05T21:53:23.393Z,5.88
2023-03-05T21:56:16.715Z,4.68
2023-03-05T21:58:43.607Z,3.63
2023-03-05T22:01:14.922Z,5.50
2023-03-05T22:03:42.188Z,6.63
2023-03-05T22:06:13.177Z,4.10
2023-03-05T22:08:40.256Z,3.45
2023-03-05T22:11:13.966Z,4.88
2023-03-05T22:13:41.776Z,3.67
2023-03-05T22:16:09.342Z,3.75
2023-03-05T22:18:36.650Z,3.67
2023-03-05T22:21:04.083Z,3.95
2023-03-05T22:23:34.148Z,3.22
2023-03-05T22:26:06.625Z,5.07
2023-03-05T22:28:34.549Z,9.13
2023-03-05T22:31:01.643Z,6.28
2023-03-05T22:33:29.324Z,4.68
2023-03-05T22:35:56.299Z,5.47
2023-03-05T22:38:24.223Z,4.82
2023-03-05T22:40:51.461Z,6.15
2023-03-05T22:43:19.529Z,8.77
2023-03-05T22:45:46.604Z,7.00
2023-03-05T22:48:14.696Z,5.55
2023-03-05T22:50:43.970Z,5.60
2023-03-05T22:53:12.166Z,6.75
2023-03-05T22:55:42.548Z,6.43
2023-03-05T22:58:09.909Z,8.57
2023-03-05T23:00:37.339Z,5.57
2023-03-05T23:03:05.136Z,7.90
2023-03-05T23:05:32.469Z,4.22
2023-03-05T23:07:59.461Z,5.80
2023-03-05T23:10:28.820Z,6.18
2023-03-05T23:12:57.899Z,3.88
2023-03-05T23:15:33.279Z,4.10
2023-03-05T23:18:00.305Z,3.65
2023-03-05T23:20:34.918Z,3.97
2023-03-05T23:23:02.715Z,3.92
2023-03-05T23:25:31.976Z,3.45
2023-03-05T23:27:59.872Z,4.32
2023-03-05T23:30:34.716Z,3.92
2023-03-05T23:33:11.022Z,4.38
2023-03-05T23:35:40.459Z,3.15
2023-03-05T23:38:11.864Z,2.55
2023-03-05T23:40:45.879Z,3.92
2023-03-05T23:43:13.742Z,2.28
2023-03-05T23:45:45.511Z,4.80
2023-03-05T23:48:12.593Z,3.92
2023-03-05T23:50:41.908Z,2.25
2023-03-05T23:53:09.576Z,4.40
2023-03-05T23:55:42.039Z,7.22
2023-03-05T23:58:09.832Z,4.18
